createdAt,value
2019-05-25T05:11:52.478Z,10.11
2019-05-25T05:21:52.153Z,9.84
2019-05-25T05:31:52.408Z,10.20
2019-05-25T05:41:52.782Z,10.17
2019-05-25T05:51:54.385Z,9.64
2019-05-25T06:01:51.489Z,9.92
2019-05-25T06:11:52.486Z,10.17
2019-05-25T06:21:52.138Z,10.34
2019-05-25T06:31:52.720Z,10.82
2019-05-25T06:41:52.068Z,10.02
2019-05-25T06:51:54.197Z,10.94
2019-05-25T07:01:52.418Z,9.72
2019-05-25T07:11:52.182Z,10.26
2019-05-25T07:22:00.561Z,10.06
2019-05-25T07:31:52.431Z,10.83
2019-05-25T07:41:50.837Z,10.62
2019-05-25T07:51:52.558Z,10.83
2019-05-25T08:01:52.626Z,10.65
2019-05-25T08:11:53.610Z,10.68
2019-05-25T08:21:54.211Z,10.51
2019-05-25T08:31:52.528Z,11.51
2019-05-25T08:41:52.499Z,11.26
2019-05-25T08:51:54.931Z,10.60
2019-05-25T11:26:42.628Z,11.39
2019-05-25T11:36:43.109Z,11.26
2019-05-25T11:46:42.766Z,10.36
2019-05-25T11:56:42.735Z,10.12
2019-05-25T12:06:46.795Z,10.50
2019-05-25T12:16:42.575Z,11.09
2019-05-25T12:26:42.652Z,11.40
2019-05-25T12:36:42.622Z,11.07
2019-05-25T12:46:44.309Z,12.12
2019-05-25T12:56:44.281Z,12.10
2019-05-25T13:06:42.512Z,12.83
2019-05-25T13:16:44.415Z,11.75
2019-05-25T13:26:42.462Z,12.48
2019-05-25T13:36:43.441Z,13.05
2019-05-25T13:46:43.603Z,12.24
2019-05-25T13:56:42.752Z,12.70
2019-05-25T14:06:44.387Z,13.43
2019-05-25T14:16:43.407Z,13.62
2019-05-25T14:26:44.289Z,13.40
2019-05-25T14:36:43.339Z,13.28
2019-05-25T14:46:43.307Z,13.21
2019-05-25T14:56:45.094Z,12.48
2019-05-25T15:06:42.884Z,12.34
2019-05-25T15:16:42.909Z,12.92
2019-05-25T15:26:43.487Z,13.22
2019-05-25T15:36:42.845Z,13.89
2019-05-25T15:46:44.992Z,12.67
2019-05-25T15:56:43.519Z,12.85
2019-05-25T16:06:46.018Z,13.23
2019-05-25T16:16:45.902Z,13.67
2019-05-25T16:26:46.284Z,13.42
2019-05-25T16:36:43.361Z,13.36
2019-05-25T16:46:43.239Z,13.17
2019-05-25T16:56:43.299Z,13.11
2019-05-25T17:06:43.368Z,12.83
2019-05-25T17:16:45.076Z,13.47
2019-05-25T17:26:43.302Z,13.61
2019-05-25T17:36:45.123Z,13.30
2019-05-25T17:46:41.593Z,13.60
2019-05-25T17:56:43.322Z,13.48
2019-05-25T18:06:43.384Z,13.25
2019-05-25T18:16:45.392Z,13.01
2019-05-25T18:26:45.047Z,12.68
2019-05-25T18:36:43.382Z,13.04
2019-05-25T18:46:45.205Z,12.89
2019-05-25T18:56:44.955Z,12.74
2019-05-25T19:06:44.825Z,12.15
